createdAt,value
2018-04-13T00:00:31.005Z,97228
2018-04-13T00:03:03.354Z,97223
2018-04-13T00:05:35.635Z,97207
2018-04-13T00:08:08.664Z,97201
2018-04-13T00:10:40.905Z,97190
2018-04-13T00:13:13.274Z,97185
2018-04-13T00:15:45.545Z,97179
2018-04-13T00:18:17.865Z,97188
2018-04-13T00:20:50.645Z,97183
2018-04-13T00:23:22.965Z,97191
2018-04-13T00:25:55.205Z,97190
2018-04-13T00:28:27.526Z,97182
2018-04-13T00:31:00.105Z,97179
2018-04-13T00:33:32.486Z,97184
2018-04-13T00:36:04.725Z,97190
2018-04-13T00:38:37.765Z,97185
2018-04-13T00:41:10.025Z,97179
2018-04-13T00:43:42.346Z,97189
2018-04-13T00:46:14.605Z,97183
2018-04-13T00:48:46.876Z,97180
2018-04-13T00:51:19.885Z,97171
2018-04-13T00:53:52.245Z,97161
2018-04-13T00:56:25.289Z,97149
2018-04-13T00:58:57.594Z,97136
2018-04-13T01:01:31.205Z,97132
2018-04-13T01:04:04.255Z,97128
2018-04-13T01:06:36.484Z,97125
2018-04-13T01:09:08.805Z,97129
2018-04-13T01:11:41.045Z,97129
2018-04-13T01:14:13.308Z,97135
2018-04-13T01:16:45.625Z,97154
2018-04-13T01:19:18.025Z,97157
2018-04-13T01:21:51.085Z,97157
2018-04-13T01:24:23.545Z,97165
2018-04-13T01:26:56.554Z,97146
2018-04-13T01:29:28.904Z,97139
2018-04-13T01:32:01.145Z,97136
2018-04-13T01:34:33.445Z,97130
2018-04-13T01:37:05.706Z,97129
2018-04-13T01:39:37.925Z,97133
2018-04-13T01:42:10.185Z,97123
2018-04-13T01:44:42.485Z,97125
2018-04-13T01:47:14.725Z,97118
2018-04-13T01:49:47.045Z,97127
2018-04-13T01:52:19.305Z,97128
2018-04-13T01:54:51.645Z,97130
2018-04-13T01:57:23.844Z,97123
2018-04-13T01:59:56.171Z,97126
2018-04-13T02:02:28.394Z,97127
2018-04-13T02:05:00.725Z,97122
2018-04-13T02:07:32.989Z,97113
2018-04-13T02:10:05.285Z,97121
2018-04-13T02:12:37.525Z,97127
2018-04-13T02:15:09.785Z,97118
2018-04-13T02:17:42.088Z,97108
2018-04-13T02:20:15.125Z,97127
2018-04-13T02:22:47.444Z,97122
2018-04-13T02:25:19.691Z,97117
2018-04-13T02:27:51.844Z,97118
2018-04-13T02:30:24.904Z,97131
2018-04-13T02:32:57.225Z,97124
2018-04-13T02:35:29.545Z,97137
2018-04-13T02:38:01.756Z,97132
2018-04-13T02:40:34.105Z,97136
2018-04-13T02:43:06.425Z,97153
2018-04-13T02:45:38.747Z,97161
2018-04-13T02:48:11.065Z,97165
2018-04-13T02:50:43.386Z,97164
2018-04-13T02:53:15.684Z,97156
2018-04-13T02:55:47.993Z,97161
2018-04-13T02:58:20.164Z,97159
2018-04-13T03:00:53.883Z,97156
2018-04-13T03:03:26.084Z,97138
2018-04-13T03:05:58.403Z,97138
2018-04-13T03:08:30.723Z,97136
2018-04-13T03:11:03.124Z,97136
2018-04-13T03:13:35.385Z,97145
2018-04-13T03:16:08.504Z,97155
2018-04-13T03:18:40.765Z,97152
2018-04-13T03:21:13.044Z,97159
2018-04-13T03:23:45.364Z,97163
2018-04-13T03:26:17.644Z,97164
2018-04-13T03:28:50.245Z,97154
2018-04-13T03:31:22.808Z,97159
2018-04-13T03:33:55.044Z,97161
2018-04-13T03:36:28.046Z,97159
2018-04-13T03:39:00.242Z,97168
2018-04-13T03:41:32.664Z,97161
2018-04-13T03:44:04.964Z,97155
2018-04-13T03:46:37.304Z,97154
2018-04-13T03:49:09.565Z,97165
2018-04-13T03:51:41.832Z,97166
2018-04-13T03:54:14.084Z,97173
2018-04-13T03:56:46.424Z,97183
2018-04-13T03:59:18.644Z,97191
2018-04-13T04:01:50.983Z,97182
2018-04-13T04:04:23.203Z,97183
2018-04-13T04:06:56.242Z,97180
2018-04-13T04:09:28.483Z,97163
2018-04-13T04:12:00.763Z,97176
2018-04-13T04:14:32.963Z,97155
2018-04-13T04:17:05.202Z,97169
2018-04-13T04:19:56.403Z,97183
2018-04-13T04:22:46.922Z,97183
2018-04-13T04:25:37.202Z,97184
2018-04-13T04:28:09.522Z,97185
2018-04-13T04:30:42.563Z,97177
2018-04-13T04:33:14.960Z,97183
2018-04-13T04:35:47.367Z,97190
2018-04-13T04:38:20.482Z,97184
2018-04-13T04:40:52.722Z,97197
2018-04-13T04:43:25.043Z,97197
2018-04-13T04:45:57.283Z,97207
2018-04-13T04:48:29.562Z,97210
2018-04-13T04:51:01.762Z,97210
2018-04-13T04:53:34.844Z,97215
2018-04-13T04:56:07.143Z,97212
2018-04-13T04:58:39.564Z,97208
2018-04-13T05:01:11.864Z,97221
2018-04-13T05:03:44.315Z,97230
2018-04-13T05:06:16.564Z,97243
2018-04-13T05:08:48.884Z,97246
2018-04-13T05:11:21.124Z,97252
2018-04-13T05:13:53.604Z,97254
2018-04-13T05:16:25.844Z,97260
2018-04-13T05:18:58.164Z,97248
2018-04-13T05:21:30.404Z,97244
2018-04-13T05:24:02.727Z,97241
2018-04-13T05:26:34.985Z,97257
2018-04-13T05:29:07.285Z,97269
2018-04-13T05:31:39.545Z,97268
2018-04-13T05:34:11.885Z,97272
2018-04-13T05:36:44.185Z,97283
2018-04-13T05:39:17.245Z,97280
2018-04-13T05:41:49.565Z,97287
2018-04-13T05:44:21.864Z,97292
2018-04-13T05:46:54.124Z,97290
2018-04-13T05:49:26.424Z,97285
2018-04-13T05:51:58.665Z,97281
2018-04-13T05:54:30.985Z,97279
2018-04-13T05:57:03.205Z,97286
2018-04-13T05:59:35.464Z,97296
2018-04-13T06:02:07.764Z,97290
2018-04-13T06:04:40.004Z,97300
2018-04-13T06:07:12.265Z,97297
2018-04-13T06:09:44.644Z,97299
2018-04-13T06:12:16.904Z,97299
2018-04-13T06:14:49.224Z,97308
2018-04-13T06:17:22.964Z,97308
2018-04-13T06:19:55.284Z,97310
2018-04-13T06:22:27.524Z,97313
2018-04-13T06:24:59.868Z,97311
2018-04-13T06:27:32.084Z,97309
2018-04-13T06:30:04.328Z,97317
2018-04-13T06:32:36.604Z,97316
2018-04-13T06:35:09.604Z,97323
2018-04-13T06:37:41.846Z,97323
2018-04-13T06:40:14.104Z,97327
2018-04-13T06:42:46.264Z,97319
2018-04-13T06:45:18.564Z,97329
2018-04-13T06:47:51.544Z,97332
2018-04-13T06:50:23.844Z,97332
2018-04-13T06:52:56.104Z,97338
2018-04-13T06:55:28.404Z,97336
2018-04-13T06:58:00.648Z,97336
2018-04-13T07:00:33.066Z,97336
2018-04-13T07:03:05.364Z,97348
2018-04-13T07:05:38.404Z,97354
2018-04-13T07:08:10.564Z,97359
2018-04-13T07:10:42.805Z,97363
2018-04-13T07:13:15.045Z,97367
2018-04-13T07:15:47.365Z,97375
2018-04-13T07:18:19.625Z,97380
2018-04-13T07:20:52.025Z,97384
2018-04-13T07:23:24.314Z,97386
2018-04-13T07:25:56.665Z,97387
2018-04-13T07:28:28.964Z,97384
2018-04-13T07:31:01.304Z,97390
2018-04-13T07:33:33.626Z,97390
2018-04-13T07:36:05.885Z,97385
2018-04-13T07:38:38.808Z,97401
2018-04-13T07:41:11.125Z,97402
2018-04-13T07:43:43.364Z,97404
2018-04-13T07:46:15.624Z,97407
2018-04-13T07:48:47.864Z,97416
2018-04-13T07:51:20.204Z,97417
2018-04-13T07:53:52.505Z,97411
2018-04-13T07:56:24.826Z,97419
2018-04-13T07:58:57.066Z,97415
2018-04-13T08:01:29.466Z,97413
2018-04-13T08:04:01.706Z,97423
2018-04-13T08:06:34.273Z,97425
2018-04-13T08:09:06.245Z,97425
2018-04-13T08:11:38.566Z,97427
2018-04-13T08:14:10.807Z,97429
2018-04-13T08:16:43.205Z,97426
2018-04-13T08:19:15.469Z,97428
2018-04-13T08:21:47.845Z,97433
2018-04-13T08:24:20.095Z,97433
2018-04-13T08:26:53.194Z,97436
2018-04-13T08:29:25.525Z,97431
2018-04-13T08:31:57.865Z,97442
2018-04-13T08:34:30.105Z,97445
2018-04-13T08:37:03.149Z,97455
2018-04-13T08:39:35.368Z,97455
2018-04-13T08:42:07.835Z,97455
2018-04-13T08:44:40.085Z,97455
2018-04-13T08:47:12.325Z,97459
2018-04-13T08:49:44.613Z,97462
2018-04-13T08:52:16.985Z,97460
2018-04-13T08:54:49.235Z,97460
2018-04-13T08:57:21.566Z,97469
2018-04-13T08:59:53.865Z,97470
2018-04-13T09:02:26.165Z,97471
2018-04-13T09:04:58.445Z,97477
2018-04-13T09:07:30.665Z,97473
2018-04-13T09:10:02.988Z,97485
2018-04-13T09:12:35.205Z,97490
2018-04-13T09:15:07.445Z,97489
2018-04-13T09:17:39.767Z,97481
2018-04-13T09:20:12.025Z,97490
2018-04-13T09:22:44.427Z,97491
2018-04-13T09:25:16.667Z,97491
2018-04-13T09:27:48.926Z,97495
2018-04-13T09:30:21.274Z,97501
2018-04-13T09:32:53.625Z,97501
2018-04-13T09:35:25.925Z,97515
2018-04-13T09:37:58.165Z,97517
2018-04-13T09:40:30.425Z,97519
2018-04-13T09:43:02.805Z,97518
2018-04-13T09:45:35.067Z,97518
2018-04-13T09:48:07.404Z,97523
2018-04-13T09:50:39.688Z,97521
2018-04-13T09:53:12.005Z,97526
2018-04-13T09:55:44.271Z,97533
2018-04-13T09:58:17.365Z,97533
2018-04-13T10:00:55.605Z,97535
2018-04-13T10:03:27.965Z,97529
2018-04-13T10:06:00.245Z,97535
2018-04-13T10:08:32.565Z,97532
2018-04-13T10:11:05.625Z,97550
2018-04-13T10:13:38.585Z,97540
2018-04-13T10:16:10.765Z,97552
2018-04-13T10:18:43.065Z,97551
2018-04-13T10:21:15.385Z,97565
2018-04-13T10:23:47.785Z,97566
2018-04-13T10:26:21.034Z,97583
2018-04-13T10:28:53.465Z,97601
2018-04-13T10:31:25.865Z,97610
2018-04-13T10:33:58.109Z,97627
2018-04-13T10:36:31.145Z,97662
2018-04-13T10:39:03.649Z,97668
2018-04-13T10:41:35.926Z,97680
2018-04-13T10:44:08.167Z,97672
2018-04-13T10:46:40.405Z,97671
2018-04-13T10:49:12.745Z,97674
2018-04-13T10:51:45.045Z,97674
2018-04-13T10:54:17.365Z,97677
2018-04-13T10:56:49.625Z,97677
2018-04-13T10:59:22.025Z,97682
2018-04-13T11:01:54.425Z,97683
2018-04-13T11:04:26.744Z,97673
2018-04-13T11:06:58.953Z,97677
2018-04-13T11:09:31.305Z,97670
2018-04-13T11:12:03.528Z,97676
2018-04-13T11:14:35.965Z,97683
2018-04-13T11:17:08.985Z,97687
2018-04-13T11:19:41.206Z,97686
2018-04-13T11:22:13.364Z,97690
2018-04-13T11:24:45.705Z,97688
2018-04-13T11:27:18.024Z,97698
2018-04-13T11:29:50.423Z,97690
2018-04-13T11:32:22.684Z,97702
2018-04-13T11:34:55.064Z,97702
2018-04-13T11:37:27.363Z,97709
2018-04-13T11:39:59.684Z,97715
2018-04-13T11:42:32.743Z,97712
2018-04-13T11:45:05.192Z,97707
2018-04-13T11:47:37.444Z,97716
2018-04-13T11:50:09.768Z,97713
2018-04-13T11:52:42.003Z,97719
2018-04-13T11:55:23.884Z,97719
2018-04-13T11:57:56.964Z,97712
2018-04-13T12:00:29.383Z,97717
2018-04-13T12:03:01.623Z,97709
2018-04-13T12:05:33.923Z,97708
2018-04-13T12:08:06.130Z,97704
2018-04-13T12:10:38.404Z,97707
2018-04-13T12:13:10.651Z,97702
2018-04-13T12:15:43.054Z,97706
2018-04-13T12:18:15.284Z,97700
2018-04-13T12:20:47.544Z,97714
2018-04-13T12:23:19.784Z,97715
2018-04-13T12:25:52.185Z,97713
2018-04-13T12:28:25.216Z,97708
2018-04-13T12:30:57.545Z,97709
2018-04-13T12:33:29.861Z,97697
2018-04-13T12:36:02.365Z,97709
2018-04-13T12:38:34.605Z,97715
2018-04-13T12:41:06.734Z,97711
2018-04-13T12:43:39.085Z,97723
2018-04-13T12:46:11.465Z,97725
2018-04-13T12:48:43.617Z,97724
2018-04-13T12:51:16.202Z,97724
2018-04-13T12:53:48.485Z,97722
2018-04-13T12:56:20.652Z,97714
2018-04-13T12:58:52.806Z,97708
2018-04-13T13:01:25.065Z,97714
2018-04-13T13:03:57.207Z,97716
2018-04-13T13:06:29.485Z,97718
2018-04-13T13:09:01.786Z,97719
2018-04-13T13:11:34.125Z,97719
2018-04-13T13:14:07.147Z,97723
2018-04-13T13:16:40.027Z,97724
2018-04-13T13:19:12.506Z,97723
2018-04-13T13:21:44.824Z,97723
2018-04-13T13:24:17.045Z,97719
2018-04-13T13:26:49.305Z,97712
2018-04-13T13:29:21.547Z,97715
2018-04-13T13:31:53.845Z,97709
2018-04-13T13:34:26.105Z,97710
2018-04-13T13:36:58.369Z,97718
2018-04-13T13:39:30.666Z,97718
2018-04-13T13:42:03.674Z,97717
2018-04-13T13:44:35.945Z,97729
2018-04-13T13:47:08.040Z,97727
2018-04-13T13:49:40.286Z,97731
2018-04-13T13:52:12.525Z,97729
2018-04-13T13:54:44.556Z,97725
2018-04-13T13:57:16.805Z,97732
2018-04-13T13:59:49.366Z,97736
2018-04-13T14:02:21.705Z,97745
2018-04-13T14:04:54.045Z,97755
2018-04-13T14:07:26.394Z,97752
2018-04-13T14:09:58.794Z,97750
2018-04-13T14:12:30.955Z,97752
2018-04-13T14:15:03.325Z,97760
2018-04-13T14:17:35.625Z,97761
2018-04-13T14:20:07.845Z,97767
2018-04-13T14:22:39.942Z,97769
2018-04-13T14:25:12.029Z,97761
2018-04-13T14:27:44.241Z,97773
2018-04-13T14:30:16.453Z,97775
2018-04-13T14:32:48.825Z,97772
2018-04-13T14:35:21.147Z,97769
2018-04-13T14:37:53.446Z,97776
2018-04-13T14:40:25.708Z,97779
2018-04-13T14:42:58.026Z,97778
2018-04-13T14:45:30.154Z,97778
2018-04-13T14:48:02.553Z,97787
2018-04-13T14:50:36.187Z,97787
2018-04-13T14:53:08.665Z,97792
2018-04-13T14:55:41.605Z,97798
2018-04-13T14:58:13.926Z,97795
2018-04-13T15:00:47.605Z,97800
2018-04-13T15:03:21.067Z,97802
2018-04-13T15:06:00.287Z,97807
2018-04-13T15:08:32.585Z,97807
2018-04-13T15:11:04.925Z,97807
2018-04-13T15:13:37.308Z,97810
2018-04-13T15:16:09.525Z,97806
2018-04-13T15:18:41.786Z,97818
2018-04-13T15:21:14.725Z,97819
2018-04-13T15:23:47.045Z,97819
2018-04-13T15:26:19.205Z,97819
2018-04-13T15:28:52.265Z,97822
2018-04-13T15:31:24.745Z,97826
2018-04-13T15:33:57.046Z,97833
2018-04-13T15:36:29.305Z,97836
2018-04-13T15:39:01.715Z,97844
2018-04-13T15:41:35.132Z,97845
2018-04-13T15:44:08.265Z,97852
2018-04-13T15:46:41.225Z,97848
2018-04-13T15:49:13.545Z,97860
2018-04-13T15:51:59.591Z,97851
2018-04-13T15:54:34.565Z,97852
2018-04-13T15:57:06.831Z,97862
2018-04-13T15:59:39.945Z,97866
2018-04-13T16:02:12.255Z,97877
2018-04-13T16:04:44.584Z,97877
2018-04-13T16:07:16.904Z,97884
2018-04-13T16:09:49.225Z,97894
2018-04-13T16:12:21.625Z,97894
2018-04-13T16:14:54.107Z,97912
2018-04-13T16:17:26.450Z,97923
2018-04-13T16:19:58.845Z,97924
2018-04-13T16:22:31.194Z,97927
2018-04-13T16:25:03.545Z,97922
2018-04-13T16:27:35.755Z,97924
2018-04-13T16:30:08.105Z,97946
2018-04-13T16:32:41.226Z,97942
2018-04-13T16:35:13.625Z,97957
2018-04-13T16:37:45.885Z,97972
2018-04-13T16:40:18.271Z,97994
2018-04-13T16:42:50.527Z,98007
2018-04-13T16:45:22.826Z,98040
2018-04-13T16:47:55.105Z,98063
2018-04-13T16:50:27.466Z,98076
2018-04-13T16:52:59.787Z,98095
2018-04-13T16:55:32.167Z,98095
2018-04-13T16:58:04.426Z,98118
2018-04-13T17:00:36.726Z,98145
2018-04-13T17:03:09.069Z,98173
2018-04-13T17:05:41.364Z,98193
2018-04-13T17:08:13.673Z,98215
2018-04-13T17:10:45.964Z,98224
2018-04-13T17:13:18.204Z,98241
2018-04-13T17:15:51.284Z,98262
2018-04-13T17:18:23.543Z,98281
2018-04-13T17:20:56.584Z,98292
2018-04-13T17:23:28.803Z,98302
2018-04-13T17:26:01.143Z,98305
2018-04-13T17:28:33.442Z,98316
2018-04-13T17:31:06.403Z,98315
2018-04-13T17:33:38.662Z,98306
2018-04-13T17:36:11.084Z,98301
2018-04-13T17:38:43.383Z,98308
2018-04-13T17:41:15.725Z,98307
2018-04-13T17:43:48.003Z,98313
2018-04-13T17:46:20.442Z,98317
2018-04-13T17:48:52.712Z,98318
2018-04-13T17:51:25.082Z,98303
2018-04-13T17:53:57.303Z,98296
2018-04-13T17:56:29.562Z,98279
2018-04-13T17:59:01.763Z,98297
2018-04-13T18:01:34.043Z,98315
2018-04-13T18:04:06.403Z,98336
2018-04-13T18:06:38.802Z,98351
2018-04-13T18:09:11.124Z,98371
2018-04-13T18:11:44.263Z,98388
2018-04-13T18:14:16.564Z,98390
2018-04-13T18:16:48.846Z,98390
2018-04-13T18:19:21.205Z,98398
2018-04-13T18:21:53.624Z,98409
2018-04-13T18:24:26.072Z,98413
2018-04-13T18:26:58.423Z,98406
2018-04-13T18:29:30.663Z,98405
2018-04-13T18:32:02.967Z,98414
2018-04-13T18:34:35.283Z,98408
2018-04-13T18:37:07.609Z,98409
2018-04-13T18:39:39.765Z,98400
2018-04-13T18:42:12.313Z,98414
2018-04-13T18:44:44.505Z,98419
2018-04-13T18:47:16.845Z,98424
2018-04-13T18:49:49.166Z,98419
2018-04-13T18:52:21.544Z,98420
2018-04-13T18:54:53.804Z,98424
2018-04-13T18:57:26.164Z,98435
2018-04-13T18:59:58.404Z,98435
2018-04-13T19:02:30.764Z,98440
2018-04-13T19:05:03.113Z,98443
2018-04-13T19:07:35.473Z,98451
2018-04-13T19:10:07.715Z,98465
2018-04-13T19:12:40.209Z,98457
2018-04-13T19:15:12.806Z,98465
2018-04-13T19:17:46.127Z,98475
2018-04-13T19:20:14.005Z,98480
2018-04-13T19:22:46.325Z,98486
2018-04-13T19:25:18.568Z,98487
2018-04-13T19:27:50.905Z,98493
2018-04-13T19:30:23.365Z,98491
2018-04-13T19:32:55.705Z,98494
2018-04-13T19:35:28.112Z,98508
2018-04-13T19:38:00.525Z,98518
2018-04-13T19:40:32.985Z,98528
2018-04-13T19:43:05.304Z,98534
2018-04-13T19:45:37.594Z,98546
2018-04-13T19:48:09.945Z,98547
2018-04-13T19:50:42.186Z,98550
2018-04-13T19:53:14.485Z,98555
2018-04-13T19:55:46.729Z,98553
2018-04-13T19:58:19.044Z,98556
2018-04-13T20:00:51.284Z,98564
2018-04-13T20:03:23.527Z,98572
2018-04-13T20:05:55.847Z,98578
2018-04-13T20:08:28.164Z,98581
2018-04-13T20:11:01.284Z,98588
2018-04-13T20:13:33.624Z,98586
2018-04-13T20:16:05.865Z,98581
2018-04-13T20:18:38.184Z,98591
2018-04-13T20:21:10.505Z,98587
2018-04-13T20:23:42.825Z,98596
2018-04-13T20:26:15.045Z,98597
2018-04-13T20:28:47.405Z,98603
2018-04-13T20:31:19.627Z,98599
2018-04-13T20:33:51.885Z,98593
2018-04-13T20:36:24.165Z,98605
2018-04-13T20:38:56.486Z,98616
2018-04-13T20:41:28.725Z,98614
2018-04-13T20:44:01.768Z,98618
2018-04-13T20:46:34.186Z,98623
2018-04-13T20:49:07.308Z,98632
2018-04-13T20:51:39.566Z,98626
2018-04-13T20:54:11.945Z,98636
2018-04-13T20:56:44.346Z,98642
2018-04-13T20:59:16.745Z,98647
2018-04-13T21:01:49.068Z,98639
2018-04-13T21:04:21.326Z,98653
2018-04-13T21:06:54.247Z,98651
2018-04-13T21:09:26.564Z,98647
2018-04-13T21:11:58.805Z,98648
2018-04-13T21:14:31.124Z,98653
2018-04-13T21:17:04.084Z,98652
2018-04-13T21:19:36.412Z,98660
2018-04-13T21:22:08.644Z,98666
2018-04-13T21:24:40.986Z,98658
2018-04-13T21:27:13.225Z,98659
2018-04-13T21:29:45.546Z,98660
2018-04-13T21:32:17.805Z,98667
2018-04-13T21:34:50.247Z,98667
2018-04-13T21:37:22.605Z,98678
2018-04-13T21:39:54.987Z,98677
2018-04-13T21:42:27.226Z,98682
2018-04-13T21:44:59.626Z,98685
2018-04-13T21:47:31.865Z,98678
2018-04-13T21:50:04.125Z,98679
2018-04-13T21:52:36.345Z,98686
2018-04-13T21:55:08.745Z,98689
2018-04-13T21:57:40.966Z,98696
2018-04-13T22:00:13.150Z,98693
2018-04-13T22:02:45.385Z,98695
2018-04-13T22:05:17.605Z,98701
2018-04-13T22:07:49.865Z,98709
2018-04-13T22:10:22.197Z,98711
2018-04-13T22:16:02.125Z,98716
2018-04-13T22:18:35.144Z,98716
2018-04-13T22:21:07.434Z,98726
2018-04-13T22:23:39.724Z,98725
2018-04-13T22:26:12.024Z,98731
2018-04-13T22:28:44.324Z,98727
2018-04-13T22:31:16.644Z,98742
2018-04-13T22:33:48.905Z,98741
2018-04-13T22:36:21.244Z,98739
2018-04-13T22:38:53.531Z,98749
2018-04-13T22:41:25.945Z,98754
2018-04-13T22:43:58.165Z,98753
2018-04-13T22:46:30.485Z,98752
2018-04-13T22:49:02.745Z,98760
2018-04-13T22:51:35.766Z,98761
2018-04-13T22:54:08.073Z,98770
2018-04-13T22:56:40.427Z,98777
2018-04-13T22:59:12.765Z,98774
2018-04-13T23:01:45.805Z,98781
2018-04-13T23:04:18.124Z,98779
2018-04-13T23:06:51.166Z,98782
2018-04-13T23:09:23.485Z,98787
2018-04-13T23:11:56.585Z,98788
2018-04-13T23:14:28.805Z,98792
2018-04-13T23:17:01.125Z,98807
2018-04-13T23:19:33.385Z,98795
2018-04-13T23:22:05.626Z,98804
2018-04-13T23:24:38.665Z,98806
2018-04-13T23:27:10.965Z,98809
2018-04-13T23:29:43.198Z,98813
2018-04-13T23:32:16.204Z,98819
2018-04-13T23:34:48.484Z,98811
2018-04-13T23:37:20.724Z,98800
2018-04-13T23:39:52.966Z,98809
2018-04-13T23:42:25.304Z,98807
2018-04-13T23:44:57.625Z,98810
2018-04-13T23:47:30.105Z,98807
2018-04-13T23:50:02.505Z,98811
2018-04-13T23:52:34.826Z,98810
2018-04-13T23:55:07.165Z,98809
2018-04-13T23:57:39.525Z,98819
